sensor_id;sensor_type;location;lat;lon;timestamp;P1;durP1;ratioP1;P2;durP2;ratioP2
8001;SDS011;4046;48.774;8.732;2023-11-21T00:00:00;1.20;;;0.80;;
8001;SDS011;4046;48.774;8.732;2023-11-21T00:02:26;1.57;;;1.00;;
8001;SDS011;4046;48.774;8.732;2023-11-21T00:04:53;1.20;;;0.93;;
8001;SDS011;4046;48.774;8.732;2023-11-21T00:07:19;1.20;;;0.90;;
8001;SDS011;4046;48.774;8.732;2023-11-21T00:09:46;1.30;;;1.10;;
8001;SDS011;4046;48.774;8.732;2023-11-21T00:12:13;1.27;;;1.10;;
8001;SDS011;4046;48.774;8.732;2023-11-21T00:14:39;1.27;;;0.90;;
8001;SDS011;4046;48.774;8.732;2023-11-21T00:17:05;1.20;;;0.80;;
8001;SDS011;4046;48.774;8.732;2023-11-21T00:19:31;1.30;;;0.90;;
8001;SDS011;4046;48.774;8.732;2023-11-21T00:21:58;1.20;;;0.90;;
8001;SDS011;4046;48.774;8.732;2023-11-21T00:24:24;1.27;;;0.87;;
8001;SDS011;4046;48.774;8.732;2023-11-21T00:26:51;1.10;;;0.70;;
8001;SDS011;4046;48.774;8.732;2023-11-21T00:29:18;1.30;;;1.00;;
8001;SDS011;4046;48.774;8.732;2023-11-21T00:31:44;1.30;;;1.00;;
8001;SDS011;4046;48.774;8.732;2023-11-21T00:34:11;1.20;;;0.87;;
8001;SDS011;4046;48.774;8.732;2023-11-21T00:36:37;1.27;;;0.90;;
8001;SDS011;4046;48.774;8.732;2023-11-21T00:39:03;1.10;;;0.80;;
8001;SDS011;4046;48.774;8.732;2023-11-21T00:41:31;1.30;;;0.90;;
8001;SDS011;4046;48.774;8.732;2023-11-21T00:43:57;3.00;;;1.10;;
8001;SDS011;4046;48.774;8.732;2023-11-21T00:46:24;1.20;;;0.90;;
8001;SDS011;4046;48.774;8.732;2023-11-21T00:48:52;1.20;;;0.83;;
8001;SDS011;4046;48.774;8.732;2023-11-21T00:51:19;1.13;;;0.70;;
8001;SDS011;4046;48.774;8.732;2023-11-21T00:53:45;1.20;;;0.87;;
8001;SDS011;4046;48.774;8.732;2023-11-21T00:56:12;1.20;;;1.00;;
8001;SDS011;4046;48.774;8.732;2023-11-21T00:58:38;1.20;;;0.90;;
8001;SDS011;4046;48.774;8.732;2023-11-21T01:01:08;1.17;;;0.80;;
8001;SDS011;4046;48.774;8.732;2023-11-21T01:03:33;1.30;;;0.80;;
8001;SDS011;4046;48.774;8.732;2023-11-21T01:05:59;1.20;;;0.83;;
8001;SDS011;4046;48.774;8.732;2023-11-21T01:08:25;1.20;;;0.80;;
8001;SDS011;4046;48.774;8.732;2023-11-21T01:10:50;1.17;;;0.80;;
8001;SDS011;4046;48.774;8.732;2023-11-21T01:13:16;1.30;;;0.90;;
8001;SDS011;4046;48.774;8.732;2023-11-21T01:15:42;1.20;;;0.80;;
8001;SDS011;4046;48.774;8.732;2023-11-21T01:18:08;1.20;;;0.80;;
8001;SDS011;4046;48.774;8.732;2023-11-21T01:20:34;1.20;;;0.80;;
8001;SDS011;4046;48.774;8.732;2023-11-21T01:22:59;1.20;;;0.90;;
8001;SDS011;4046;48.774;8.732;2023-11-21T01:25:25;1.30;;;0.90;;
8001;SDS011;4046;48.774;8.732;2023-11-21T01:27:51;1.20;;;0.80;;
8001;SDS011;4046;48.774;8.732;2023-11-21T01:30:17;1.20;;;0.80;;
8001;SDS011;4046;48.774;8.732;2023-11-21T01:32:43;1.20;;;0.80;;
8001;SDS011;4046;48.774;8.732;2023-11-21T01:35:09;1.30;;;0.97;;
8001;SDS011;4046;48.774;8.732;2023-11-21T01:37:35;1.20;;;0.80;;
8001;SDS011;4046;48.774;8.732;2023-11-21T01:40:02;1.20;;;0.90;;
8001;SDS011;4046;48.774;8.732;2023-11-21T01:42:33;1.20;;;0.80;;
8001;SDS011;4046;48.774;8.732;2023-11-21T01:45:00;1.20;;;0.80;;
8001;SDS011;4046;48.774;8.732;2023-11-21T01:47:31;1.20;;;0.90;;
8001;SDS011;4046;48.774;8.732;2023-11-21T01:50:01;1.30;;;0.70;;
8001;SDS011;4046;48.774;8.732;2023-11-21T01:52:30;1.20;;;0.80;;
8001;SDS011;4046;48.774;8.732;2023-11-21T01:54:57;1.10;;;0.70;;
8001;SDS011;4046;48.774;8.732;2023-11-21T01:57:24;1.20;;;0.80;;
8001;SDS011;4046;48.774;8.732;2023-11-21T01:59:50;1.10;;;0.70;;
8001;SDS011;4046;48.774;8.732;2023-11-21T02:02:19;1.10;;;0.70;;
8001;SDS011;4046;48.774;8.732;2023-11-21T02:04:45;1.13;;;0.77;;
8001;SDS011;4046;48.774;8.732;2023-11-21T02:07:11;1.20;;;0.80;;
8001;SDS011;4046;48.774;8.732;2023-11-21T02:09:37;1.20;;;0.90;;
8001;SDS011;4046;48.774;8.732;2023-11-21T02:12:03;1.20;;;0.80;;
8001;SDS011;4046;48.774;8.732;2023-11-21T02:14:30;1.10;;;0.73;;
8001;SDS011;4046;48.774;8.732;2023-11-21T02:16:56;1.20;;;0.70;;
8001;SDS011;4046;48.774;8.732;2023-11-21T02:19:22;1.20;;;0.80;;
8001;SDS011;4046;48.774;8.732;2023-11-21T02:21:51;1.30;;;0.80;;
8001;SDS011;4046;48.774;8.732;2023-11-21T02:24:23;1.20;;;0.80;;
8001;SDS011;4046;48.774;8.732;2023-11-21T02:26:49;1.20;;;0.80;;
8001;SDS011;4046;48.774;8.732;2023-11-21T02:29:18;1.10;;;0.70;;
8001;SDS011;4046;48.774;8.732;2023-11-21T02:31:47;1.13;;;0.80;;
8001;SDS011;4046;48.774;8.732;2023-11-21T02:34:17;1.60;;;0.80;;
8001;SDS011;4046;48.774;8.732;2023-11-21T02:36:43;1.20;;;0.83;;
8001;SDS011;4046;48.774;8.732;2023-11-21T02:39:10;1.37;;;0.80;;
8001;SDS011;4046;48.774;8.732;2023-11-21T02:41:36;1.20;;;0.70;;
8001;SDS011;4046;48.774;8.732;2023-11-21T02:44:03;1.20;;;0.80;;
8001;SDS011;4046;48.774;8.732;2023-11-21T02:46:31;1.30;;;0.90;;
8001;SDS011;4046;48.774;8.732;2023-11-21T02:49:01;1.10;;;0.63;;
8001;SDS011;4046;48.774;8.732;2023-11-21T02:51:27;1.10;;;0.70;;
8001;SDS011;4046;48.774;8.732;2023-11-21T02:53:53;1.13;;;0.70;;
8001;SDS011;4046;48.774;8.732;2023-11-21T02:56:19;1.10;;;0.70;;
8001;SDS011;4046;48.774;8.732;2023-11-21T02:58:45;1.17;;;0.70;;
8001;SDS011;4046;48.774;8.732;2023-11-21T03:01:11;1.20;;;0.70;;
8001;SDS011;4046;48.774;8.732;2023-11-21T03:03:38;1.20;;;0.77;;
8001;SDS011;4046;48.774;8.732;2023-11-21T03:06:05;1.20;;;0.90;;
8001;SDS011;4046;48.774;8.732;2023-11-21T03:08:32;1.17;;;0.73;;
8001;SDS011;4046;48.774;8.732;2023-11-21T03:10:58;1.10;;;0.70;;
8001;SDS011;4046;48.774;8.732;2023-11-21T03:13:24;1.30;;;0.80;;
8001;SDS011;4046;48.774;8.732;2023-11-21T03:15:49;1.10;;;0.70;;
8001;SDS011;4046;48.774;8.732;2023-11-21T03:18:15;1.10;;;0.73;;
8001;SDS011;4046;48.774;8.732;2023-11-21T03:20:41;1.30;;;0.80;;
8001;SDS011;4046;48.774;8.732;2023-11-21T03:23:11;1.20;;;0.70;;
8001;SDS011;4046;48.774;8.732;2023-11-21T03:25:37;1.10;;;0.63;;
8001;SDS011;4046;48.774;8.732;2023-11-21T03:28:03;1.13;;;0.77;;
8001;SDS011;4046;48.774;8.732;2023-11-21T03:30:29;1.13;;;0.80;;
8001;SDS011;4046;48.774;8.732;2023-11-21T03:32:55;1.70;;;0.80;;
8001;SDS011;4046;48.774;8.732;2023-11-21T03:35:21;1.17;;;0.73;;
8001;SDS011;4046;48.774;8.732;2023-11-21T03:37:47;1.20;;;0.80;;
8001;SDS011;4046;48.774;8.732;2023-11-21T03:40:12;1.10;;;0.70;;
8001;SDS011;4046;48.774;8.732;2023-11-21T03:42:39;1.10;;;0.70;;
8001;SDS011;4046;48.774;8.732;2023-11-21T03:45:05;1.13;;;0.70;;
8001;SDS011;4046;48.774;8.732;2023-11-21T03:47:31;1.10;;;0.70;;
8001;SDS011;4046;48.774;8.732;2023-11-21T03:49:57;1.10;;;0.70;;
8001;SDS011;4046;48.774;8.732;2023-11-21T03:52:23;1.10;;;0.70;;
8001;SDS011;4046;48.774;8.732;2023-11-21T03:54:49;1.10;;;0.60;;
8001;SDS011;4046;48.774;8.732;2023-11-21T03:57:15;1.10;;;0.70;;
8001;SDS011;4046;48.774;8.732;2023-11-21T03:59:41;1.10;;;0.60;;
8001;SDS011;4046;48.774;8.732;2023-11-21T04:02:08;1.20;;;0.77;;
8001;SDS011;4046;48.774;8.732;2023-11-21T04:04:34;1.10;;;0.67;;
8001;SDS011;4046;48.774;8.732;2023-11-21T04:07:01;1.10;;;0.67;;
8001;SDS011;4046;48.774;8.732;2023-11-21T04:09:27;1.20;;;0.73;;
8001;SDS011;4046;48.774;8.732;2023-11-21T04:11:53;1.10;;;0.67;;
8001;SDS011;4046;48.774;8.732;2023-11-21T04:14:19;1.10;;;0.60;;
8001;SDS011;4046;48.774;8.732;2023-11-21T04:16:45;1.10;;;0.70;;
8001;SDS011;4046;48.774;8.732;2023-11-21T04:19:11;1.10;;;0.70;;
8001;SDS011;4046;48.774;8.732;2023-11-21T04:21:40;1.30;;;0.70;;
8001;SDS011;4046;48.774;8.732;2023-11-21T04:24:06;1.10;;;0.60;;
8001;SDS011;4046;48.774;8.732;2023-11-21T04:26:32;1.20;;;0.80;;
8001;SDS011;4046;48.774;8.732;2023-11-21T04:28:58;1.10;;;0.70;;
8001;SDS011;4046;48.774;8.732;2023-11-21T04:31:24;1.10;;;0.67;;
8001;SDS011;4046;48.774;8.732;2023-11-21T04:33:49;1.10;;;0.60;;
8001;SDS011;4046;48.774;8.732;2023-11-21T04:36:15;1.10;;;0.70;;
8001;SDS011;4046;48.774;8.732;2023-11-21T04:38:41;1.17;;;0.67;;
8001;SDS011;4046;48.774;8.732;2023-11-21T04:41:07;1.10;;;0.60;;
8001;SDS011;4046;48.774;8.732;2023-11-21T04:43:33;1.10;;;0.60;;
8001;SDS011;4046;48.774;8.732;2023-11-21T04:45:59;1.20;;;0.70;;
8001;SDS011;4046;48.774;8.732;2023-11-21T04:48:25;1.10;;;0.50;;
8001;SDS011;4046;48.774;8.732;2023-11-21T04:50:51;1.13;;;0.70;;
8001;SDS011;4046;48.774;8.732;2023-11-21T04:53:17;1.30;;;0.70;;
8001;SDS011;4046;48.774;8.732;2023-11-21T04:55:42;1.10;;;0.63;;
8001;SDS011;4046;48.774;8.732;2023-11-21T04:58:09;1.10;;;0.60;;
8001;SDS011;4046;48.774;8.732;2023-11-21T05:00:35;1.30;;;0.70;;
8001;SDS011;4046;48.774;8.732;2023-11-21T05:03:02;1.20;;;0.80;;
8001;SDS011;4046;48.774;8.732;2023-11-21T05:05:29;1.17;;;0.70;;
8001;SDS011;4046;48.774;8.732;2023-11-21T05:07:58;1.10;;;0.67;;
8001;SDS011;4046;48.774;8.732;2023-11-21T05:10:24;1.10;;;0.63;;
8001;SDS011;4046;48.774;8.732;2023-11-21T05:12:50;1.10;;;0.67;;
8001;SDS011;4046;48.774;8.732;2023-11-21T05:15:16;1.10;;;0.70;;
8001;SDS011;4046;48.774;8.732;2023-11-21T05:17:43;1.20;;;0.70;;
8001;SDS011;4046;48.774;8.732;2023-11-21T05:20:10;1.10;;;0.60;;
8001;SDS011;4046;48.774;8.732;2023-11-21T05:22:43;1.10;;;0.60;;
8001;SDS011;4046;48.774;8.732;2023-11-21T05:25:08;1.10;;;0.60;;
8001;SDS011;4046;48.774;8.732;2023-11-21T05:27:36;1.20;;;0.70;;
8001;SDS011;4046;48.774;8.732;2023-11-21T05:30:02;1.10;;;0.73;;
8001;SDS011;4046;48.774;8.732;2023-11-21T05:32:30;1.10;;;0.70;;
8001;SDS011;4046;48.774;8.732;2023-11-21T05:34:57;1.10;;;0.60;;
8001;SDS011;4046;48.774;8.732;2023-11-21T05:37:23;1.10;;;0.70;;
8001;SDS011;4046;48.774;8.732;2023-11-21T05:39:49;1.10;;;0.60;;
8001;SDS011;4046;48.774;8.732;2023-11-21T05:42:14;1.10;;;0.70;;
8001;SDS011;4046;48.774;8.732;2023-11-21T05:44:42;1.10;;;0.70;;
8001;SDS011;4046;48.774;8.732;2023-11-21T05:47:10;1.47;;;0.60;;
8001;SDS011;4046;48.774;8.732;2023-11-21T05:49:36;1.20;;;0.70;;
8001;SDS011;4046;48.774;8.732;2023-11-21T05:52:02;1.10;;;0.70;;
8001;SDS011;4046;48.774;8.732;2023-11-21T05:54:28;2.47;;;1.33;;
8001;SDS011;4046;48.774;8.732;2023-11-21T05:56:54;1.10;;;0.60;;
8001;SDS011;4046;48.774;8.732;2023-11-21T05:59:19;1.20;;;0.70;;
8001;SDS011;4046;48.774;8.732;2023-11-21T06:01:45;1.10;;;0.63;;
8001;SDS011;4046;48.774;8.732;2023-11-21T06:04:11;1.10;;;0.60;;
8001;SDS011;4046;48.774;8.732;2023-11-21T06:06:38;1.10;;;0.60;;
8001;SDS011;4046;48.774;8.732;2023-11-21T06:09:04;1.20;;;0.80;;
8001;SDS011;4046;48.774;8.732;2023-11-21T06:11:31;1.10;;;0.60;;
8001;SDS011;4046;48.774;8.732;2023-11-21T06:13:57;1.20;;;0.80;;
8001;SDS011;4046;48.774;8.732;2023-11-21T06:16:23;1.10;;;0.60;;
8001;SDS011;4046;48.774;8.732;2023-11-21T06:18:49;1.10;;;0.60;;
8001;SDS011;4046;48.774;8.732;2023-11-21T06:21:15;1.10;;;0.70;;
8001;SDS011;4046;48.774;8.732;2023-11-21T06:23:42;1.10;;;0.53;;
8001;SDS011;4046;48.774;8.732;2023-11-21T06:26:08;1.10;;;0.63;;
8001;SDS011;4046;48.774;8.732;2023-11-21T06:28:34;1.17;;;0.70;;
8001;SDS011;4046;48.774;8.732;2023-11-21T06:31:01;1.10;;;0.63;;
8001;SDS011;4046;48.774;8.732;2023-11-21T06:33:33;1.10;;;0.60;;
8001;SDS011;4046;48.774;8.732;2023-11-21T06:35:59;1.10;;;0.67;;
8001;SDS011;4046;48.774;8.732;2023-11-21T06:38:28;1.17;;;0.70;;
8001;SDS011;4046;48.774;8.732;2023-11-21T06:40:58;1.10;;;0.70;;
8001;SDS011;4046;48.774;8.732;2023-11-21T06:43:24;1.20;;;0.60;;
8001;SDS011;4046;48.774;8.732;2023-11-21T06:45:49;1.10;;;0.60;;
8001;SDS011;4046;48.774;8.732;2023-11-21T06:48:15;1.10;;;0.60;;
8001;SDS011;4046;48.774;8.732;2023-11-21T06:50:41;1.10;;;0.60;;
8001;SDS011;4046;48.774;8.732;2023-11-21T06:53:07;1.10;;;0.60;;
8001;SDS011;4046;48.774;8.732;2023-11-21T06:55:34;1.10;;;0.70;;
8001;SDS011;4046;48.774;8.732;2023-11-21T06:58:00;1.10;;;0.70;;
8001;SDS011;4046;48.774;8.732;2023-11-21T07:00:26;1.10;;;0.60;;
8001;SDS011;4046;48.774;8.732;2023-11-21T07:02:55;1.10;;;0.60;;
8001;SDS011;4046;48.774;8.732;2023-11-21T07:05:21;1.10;;;0.60;;
8001;SDS011;4046;48.774;8.732;2023-11-21T07:07:48;1.20;;;0.80;;
8001;SDS011;4046;48.774;8.732;2023-11-21T07:10:15;1.10;;;0.63;;
8001;SDS011;4046;48.774;8.732;2023-11-21T07:12:40;1.10;;;0.50;;
8001;SDS011;4046;48.774;8.732;2023-11-21T07:15:06;1.10;;;0.60;;
8001;SDS011;4046;48.774;8.732;2023-11-21T07:17:37;1.10;;;0.60;;
8001;SDS011;4046;48.774;8.732;2023-11-21T07:20:05;1.20;;;0.73;;
8001;SDS011;4046;48.774;8.732;2023-11-21T07:22:31;1.10;;;0.60;;
8001;SDS011;4046;48.774;8.732;2023-11-21T07:24:57;1.10;;;0.60;;
8001;SDS011;4046;48.774;8.732;2023-11-21T07:27:23;1.10;;;0.60;;
8001;SDS011;4046;48.774;8.732;2023-11-21T07:29:48;1.10;;;0.60;;
8001;SDS011;4046;48.774;8.732;2023-11-21T07:32:14;1.10;;;0.70;;
8001;SDS011;4046;48.774;8.732;2023-11-21T07:34:41;1.10;;;0.70;;
8001;SDS011;4046;48.774;8.732;2023-11-21T07:37:07;1.10;;;0.60;;
8001;SDS011;4046;48.774;8.732;2023-11-21T07:39:34;1.10;;;0.57;;
8001;SDS011;4046;48.774;8.732;2023-11-21T07:42:01;1.10;;;0.63;;
8001;SDS011;4046;48.774;8.732;2023-11-21T07:44:27;1.20;;;0.70;;
8001;SDS011;4046;48.774;8.732;2023-11-21T07:46:54;1.10;;;0.60;;
8001;SDS011;4046;48.774;8.732;2023-11-21T07:49:23;1.10;;;0.60;;
8001;SDS011;4046;48.774;8.732;2023-11-21T07:51:50;1.10;;;0.60;;
8001;SDS011;4046;48.774;8.732;2023-11-21T07:54:16;1.10;;;0.60;;
8001;SDS011;4046;48.774;8.732;2023-11-21T07:56:42;1.10;;;0.50;;
8001;SDS011;4046;48.774;8.732;2023-11-21T07:59:08;1.10;;;0.60;;
8001;SDS011;4046;48.774;8.732;2023-11-21T08:01:33;1.10;;;0.60;;
8001;SDS011;4046;48.774;8.732;2023-11-21T08:03:59;1.10;;;0.60;;
8001;SDS011;4046;48.774;8.732;2023-11-21T08:06:29;1.10;;;0.60;;
8001;SDS011;4046;48.774;8.732;2023-11-21T08:08:56;1.10;;;0.70;;
8001;SDS011;4046;48.774;8.732;2023-11-21T08:11:22;1.10;;;0.60;;
8001;SDS011;4046;48.774;8.732;2023-11-21T08:13:47;1.10;;;0.60;;
8001;SDS011;4046;48.774;8.732;2023-11-21T08:16:13;1.10;;;0.60;;
8001;SDS011;4046;48.774;8.732;2023-11-21T08:18:39;1.10;;;0.60;;
8001;SDS011;4046;48.774;8.732;2023-11-21T08:21:06;1.07;;;0.60;;
8001;SDS011;4046;48.774;8.732;2023-11-21T08:23:33;1.20;;;0.60;;
8001;SDS011;4046;48.774;8.732;2023-11-21T08:25:59;1.30;;;0.70;;
8001;SDS011;4046;48.774;8.732;2023-11-21T08:28:27;1.10;;;0.60;;
8001;SDS011;4046;48.774;8.732;2023-11-21T08:30:52;1.10;;;0.60;;
8001;SDS011;4046;48.774;8.732;2023-11-21T08:33:19;1.10;;;0.60;;
8001;SDS011;4046;48.774;8.732;2023-11-21T08:35:45;1.10;;;0.60;;
8001;SDS011;4046;48.774;8.732;2023-11-21T08:38:11;1.10;;;0.60;;
8001;SDS011;4046;48.774;8.732;2023-11-21T08:40:37;1.10;;;0.70;;
8001;SDS011;4046;48.774;8.732;2023-11-21T08:43:03;1.07;;;0.60;;
8001;SDS011;4046;48.774;8.732;2023-11-21T08:45:33;1.10;;;0.50;;
8001;SDS011;4046;48.774;8.732;2023-11-21T08:47:59;1.10;;;0.60;;
8001;SDS011;4046;48.774;8.732;2023-11-21T08:50:25;1.10;;;0.60;;
8001;SDS011;4046;48.774;8.732;2023-11-21T08:52:51;1.10;;;0.57;;
8001;SDS011;4046;48.774;8.732;2023-11-21T08:55:17;1.20;;;0.60;;
8001;SDS011;4046;48.774;8.732;2023-11-21T08:57:45;1.10;;;0.60;;
8001;SDS011;4046;48.774;8.732;2023-11-21T09:00:12;1.10;;;0.70;;
8001;SDS011;4046;48.774;8.732;2023-11-21T09:02:41;1.10;;;0.60;;
8001;SDS011;4046;48.774;8.732;2023-11-21T09:05:10;1.10;;;0.53;;
8001;SDS011;4046;48.774;8.732;2023-11-21T09:07:37;1.10;;;0.60;;
8001;SDS011;4046;48.774;8.732;2023-11-21T09:10:05;1.10;;;0.60;;
8001;SDS011;4046;48.774;8.732;2023-11-21T09:12:36;1.10;;;0.50;;
8001;SDS011;4046;48.774;8.732;2023-11-21T09:15:05;1.10;;;0.60;;
8001;SDS011;4046;48.774;8.732;2023-11-21T09:17:32;1.10;;;0.60;;
8001;SDS011;4046;48.774;8.732;2023-11-21T09:19:59;1.10;;;0.53;;
8001;SDS011;4046;48.774;8.732;2023-11-21T09:22:25;1.10;;;0.60;;
8001;SDS011;4046;48.774;8.732;2023-11-21T09:24:51;1.10;;;0.60;;
8001;SDS011;4046;48.774;8.732;2023-11-21T09:27:17;1.10;;;0.70;;
8001;SDS011;4046;48.774;8.732;2023-11-21T09:29:44;1.10;;;0.60;;
8001;SDS011;4046;48.774;8.732;2023-11-21T09:32:09;1.10;;;0.53;;
8001;SDS011;4046;48.774;8.732;2023-11-21T09:34:39;1.10;;;0.60;;
8001;SDS011;4046;48.774;8.732;2023-11-21T09:37:05;1.10;;;0.63;;
8001;SDS011;4046;48.774;8.732;2023-11-21T09:39:31;1.10;;;0.60;;
8001;SDS011;4046;48.774;8.732;2023-11-21T09:44:47;1.10;;;0.60;;
8001;SDS011;4046;48.774;8.732;2023-11-21T09:47:38;1.10;;;0.60;;
8001;SDS011;4046;48.774;8.732;2023-11-21T09:50:05;1.10;;;0.70;;
8001;SDS011;4046;48.774;8.732;2023-11-21T09:52:36;1.10;;;0.50;;
8001;SDS011;4046;48.774;8.732;2023-11-21T09:55:14;1.10;;;0.60;;
8001;SDS011;4046;48.774;8.732;2023-11-21T09:57:44;1.10;;;0.60;;
8001;SDS011;4046;48.774;8.732;2023-11-21T10:00:10;1.10;;;0.67;;
8001;SDS011;4046;48.774;8.732;2023-11-21T10:02:37;1.10;;;0.60;;
8001;SDS011;4046;48.774;8.732;2023-11-21T10:05:06;1.10;;;0.60;;
8001;SDS011;4046;48.774;8.732;2023-11-21T10:07:35;1.10;;;0.70;;
8001;SDS011;4046;48.774;8.732;2023-11-21T10:10:01;1.20;;;0.60;;
8001;SDS011;4046;48.774;8.732;2023-11-21T10:12:27;1.10;;;0.60;;
8001;SDS011;4046;48.774;8.732;2023-11-21T10:14:54;1.10;;;0.60;;
8001;SDS011;4046;48.774;8.732;2023-11-21T10:17:25;1.10;;;0.57;;
8001;SDS011;4046;48.774;8.732;2023-11-21T10:19:55;1.10;;;0.50;;
8001;SDS011;4046;48.774;8.732;2023-11-21T10:22:22;1.10;;;0.60;;
8001;SDS011;4046;48.774;8.732;2023-11-21T10:24:49;1.10;;;0.60;;
8001;SDS011;4046;48.774;8.732;2023-11-21T10:27:14;1.10;;;0.60;;
8001;SDS011;4046;48.774;8.732;2023-11-21T10:29:40;1.10;;;0.60;;
8001;SDS011;4046;48.774;8.732;2023-11-21T10:32:07;1.10;;;0.50;;
8001;SDS011;4046;48.774;8.732;2023-11-21T10:34:32;1.10;;;0.60;;
8001;SDS011;4046;48.774;8.732;2023-11-21T10:36:59;1.10;;;0.60;;
8001;SDS011;4046;48.774;8.732;2023-11-21T10:39:36;1.10;;;0.50;;
8001;SDS011;4046;48.774;8.732;2023-11-21T10:42:03;1.10;;;0.50;;
8001;SDS011;4046;48.774;8.732;2023-11-21T10:44:29;1.10;;;0.60;;
8001;SDS011;4046;48.774;8.732;2023-11-21T10:46:55;1.10;;;0.60;;
8001;SDS011;4046;48.774;8.732;2023-11-21T10:49:22;1.10;;;0.50;;
8001;SDS011;4046;48.774;8.732;2023-11-21T10:51:55;1.10;;;0.63;;
8001;SDS011;4046;48.774;8.732;2023-11-21T10:54:22;1.10;;;0.60;;
8001;SDS011;4046;48.774;8.732;2023-11-21T10:56:49;1.10;;;0.60;;
8001;SDS011;4046;48.774;8.732;2023-11-21T10:59:18;1.10;;;0.60;;
8001;SDS011;4046;48.774;8.732;2023-11-21T11:01:46;1.10;;;0.57;;
8001;SDS011;4046;48.774;8.732;2023-11-21T11:04:14;1.10;;;0.60;;
8001;SDS011;4046;48.774;8.732;2023-11-21T11:06:43;1.10;;;0.60;;
8001;SDS011;4046;48.774;8.732;2023-11-21T11:09:13;1.10;;;0.60;;
8001;SDS011;4046;48.774;8.732;2023-11-21T11:11:40;1.03;;;0.50;;
8001;SDS011;4046;48.774;8.732;2023-11-21T11:14:12;1.10;;;0.60;;
8001;SDS011;4046;48.774;8.732;2023-11-21T11:16:39;1.10;;;0.50;;
8001;SDS011;4046;48.774;8.732;2023-11-21T11:19:09;1.10;;;0.60;;
8001;SDS011;4046;48.774;8.732;2023-11-21T11:30:05;1.10;;;0.63;;
8001;SDS011;4046;48.774;8.732;2023-11-21T11:35:24;1.10;;;0.60;;
8001;SDS011;4046;48.774;8.732;2023-11-21T11:37:59;1.10;;;0.50;;
8001;SDS011;4046;48.774;8.732;2023-11-21T11:40:26;1.10;;;0.60;;
8001;SDS011;4046;48.774;8.732;2023-11-21T11:43:09;1.10;;;0.60;;
8001;SDS011;4046;48.774;8.732;2023-11-21T11:45:35;1.10;;;0.60;;
8001;SDS011;4046;48.774;8.732;2023-11-21T11:48:06;1.10;;;0.60;;
8001;SDS011;4046;48.774;8.732;2023-11-21T11:50:33;1.10;;;0.60;;
8001;SDS011;4046;48.774;8.732;2023-11-21T11:53:32;1.10;;;0.60;;
8001;SDS011;4046;48.774;8.732;2023-11-21T11:56:07;1.10;;;0.60;;
8001;SDS011;4046;48.774;8.732;2023-11-21T11:58:59;1.10;;;0.50;;
8001;SDS011;4046;48.774;8.732;2023-11-21T12:01:28;1.10;;;0.60;;
8001;SDS011;4046;48.774;8.732;2023-11-21T12:04:40;1.10;;;0.50;;
8001;SDS011;4046;48.774;8.732;2023-11-21T12:06:48;1.10;;;0.60;;
8001;SDS011;4046;48.774;8.732;2023-11-21T12:09:21;1.10;;;0.50;;
8001;SDS011;4046;48.774;8.732;2023-11-21T12:11:49;1.10;;;0.50;;
8001;SDS011;4046;48.774;8.732;2023-11-21T12:14:15;1.10;;;0.60;;
8001;SDS011;4046;48.774;8.732;2023-11-21T12:16:41;1.10;;;0.60;;
8001;SDS011;4046;48.774;8.732;2023-11-21T12:19:13;1.10;;;0.60;;
8001;SDS011;4046;48.774;8.732;2023-11-21T12:21:39;1.10;;;0.50;;
8001;SDS011;4046;48.774;8.732;2023-11-21T12:24:06;1.10;;;0.60;;
8001;SDS011;4046;48.774;8.732;2023-11-21T12:26:34;1.10;;;0.60;;
8001;SDS011;4046;48.774;8.732;2023-11-21T12:29:01;1.10;;;0.60;;
8001;SDS011;4046;48.774;8.732;2023-11-21T12:31:30;1.10;;;0.50;;
8001;SDS011;4046;48.774;8.732;2023-11-21T12:33:55;1.10;;;0.67;;
8001;SDS011;4046;48.774;8.732;2023-11-21T12:36:22;1.20;;;0.60;;
8001;SDS011;4046;48.774;8.732;2023-11-21T12:38:50;1.10;;;0.63;;
8001;SDS011;4046;48.774;8.732;2023-11-21T12:41:16;1.10;;;0.60;;
8001;SDS011;4046;48.774;8.732;2023-11-21T12:43:42;1.10;;;0.60;;
8001;SDS011;4046;48.774;8.732;2023-11-21T12:46:10;1.10;;;0.50;;
8001;SDS011;4046;48.774;8.732;2023-11-21T12:48:42;1.10;;;0.50;;
8001;SDS011;4046;48.774;8.732;2023-11-21T12:51:10;1.10;;;0.50;;
8001;SDS011;4046;48.774;8.732;2023-11-21T12:53:37;1.10;;;0.60;;
8001;SDS011;4046;48.774;8.732;2023-11-21T12:56:07;1.10;;;0.60;;
8001;SDS011;4046;48.774;8.732;2023-11-21T12:58:35;1.10;;;0.60;;
8001;SDS011;4046;48.774;8.732;2023-11-21T13:01:02;1.10;;;0.60;;
8001;SDS011;4046;48.774;8.732;2023-11-21T13:03:30;1.10;;;0.60;;
8001;SDS011;4046;48.774;8.732;2023-11-21T13:05:57;1.10;;;0.50;;
8001;SDS011;4046;48.774;8.732;2023-11-21T13:08:25;1.10;;;0.50;;
8001;SDS011;4046;48.774;8.732;2023-11-21T13:10:52;1.10;;;0.60;;
8001;SDS011;4046;48.774;8.732;2023-11-21T13:13:22;1.10;;;0.50;;
8001;SDS011;4046;48.774;8.732;2023-11-21T13:15:50;1.10;;;0.60;;
8001;SDS011;4046;48.774;8.732;2023-11-21T13:18:23;1.07;;;0.50;;
8001;SDS011;4046;48.774;8.732;2023-11-21T13:20:50;1.10;;;0.57;;
8001;SDS011;4046;48.774;8.732;2023-11-21T13:23:15;1.10;;;0.60;;
8001;SDS011;4046;48.774;8.732;2023-11-21T13:25:42;1.10;;;0.60;;
8001;SDS011;4046;48.774;8.732;2023-11-21T13:28:10;1.10;;;0.60;;
8001;SDS011;4046;48.774;8.732;2023-11-21T13:30:37;1.10;;;0.50;;
8001;SDS011;4046;48.774;8.732;2023-11-21T13:33:05;1.10;;;0.50;;
8001;SDS011;4046;48.774;8.732;2023-11-21T13:35:38;1.10;;;0.67;;
8001;SDS011;4046;48.774;8.732;2023-11-21T13:38:08;1.10;;;0.60;;
8001;SDS011;4046;48.774;8.732;2023-11-21T13:40:36;1.10;;;0.50;;
8001;SDS011;4046;48.774;8.732;2023-11-21T13:43:14;1.10;;;0.50;;
8001;SDS011;4046;48.774;8.732;2023-11-21T13:45:41;1.10;;;0.50;;
8001;SDS011;4046;48.774;8.732;2023-11-21T13:48:09;1.10;;;0.50;;
8001;SDS011;4046;48.774;8.732;2023-11-21T13:50:36;1.10;;;0.57;;
8001;SDS011;4046;48.774;8.732;2023-11-21T13:53:02;1.10;;;0.50;;
8001;SDS011;4046;48.774;8.732;2023-11-21T13:55:46;1.10;;;0.60;;
8001;SDS011;4046;48.774;8.732;2023-11-21T13:58:13;1.10;;;0.60;;
8001;SDS011;4046;48.774;8.732;2023-11-21T14:00:45;1.10;;;0.57;;
8001;SDS011;4046;48.774;8.732;2023-11-21T14:03:11;1.10;;;0.50;;
8001;SDS011;4046;48.774;8.732;2023-11-21T14:05:47;1.10;;;0.60;;
8001;SDS011;4046;48.774;8.732;2023-11-21T14:08:20;1.10;;;0.60;;
8001;SDS011;4046;48.774;8.732;2023-11-21T14:10:47;1.10;;;0.60;;
8001;SDS011;4046;48.774;8.732;2023-11-21T14:13:19;1.10;;;0.60;;
8001;SDS011;4046;48.774;8.732;2023-11-21T14:15:48;1.10;;;0.60;;
8001;SDS011;4046;48.774;8.732;2023-11-21T14:18:17;1.10;;;0.53;;
8001;SDS011;4046;48.774;8.732;2023-11-21T14:20:51;1.10;;;0.60;;
8001;SDS011;4046;48.774;8.732;2023-11-21T14:23:17;1.10;;;0.60;;
8001;SDS011;4046;48.774;8.732;2023-11-21T14:25:43;1.10;;;0.60;;
8001;SDS011;4046;48.774;8.732;2023-11-21T14:28:09;1.10;;;0.70;;
8001;SDS011;4046;48.774;8.732;2023-11-21T14:30:37;1.10;;;0.50;;
8001;SDS011;4046;48.774;8.732;2023-11-21T14:33:04;1.10;;;0.60;;
8001;SDS011;4046;48.774;8.732;2023-11-21T14:35:31;1.10;;;0.60;;
8001;SDS011;4046;48.774;8.732;2023-11-21T14:38:00;1.10;;;0.53;;
8001;SDS011;4046;48.774;8.732;2023-11-21T14:40:29;1.10;;;0.50;;
8001;SDS011;4046;48.774;8.732;2023-11-21T14:42:59;1.10;;;0.60;;
8001;SDS011;4046;48.774;8.732;2023-11-21T14:45:25;1.10;;;0.60;;
8001;SDS011;4046;48.774;8.732;2023-11-21T14:47:52;1.10;;;0.60;;
8001;SDS011;4046;48.774;8.732;2023-11-21T14:50:29;1.10;;;0.50;;
8001;SDS011;4046;48.774;8.732;2023-11-21T14:53:01;1.10;;;0.60;;
8001;SDS011;4046;48.774;8.732;2023-11-21T14:55:31;1.10;;;0.60;;
8001;SDS011;4046;48.774;8.732;2023-11-21T14:58:04;1.20;;;0.60;;
8001;SDS011;4046;48.774;8.732;2023-11-21T15:00:30;1.10;;;0.60;;
8001;SDS011;4046;48.774;8.732;2023-11-21T15:03:06;1.10;;;0.60;;
8001;SDS011;4046;48.774;8.732;2023-11-21T15:05:34;1.10;;;0.60;;
8001;SDS011;4046;48.774;8.732;2023-11-21T15:08:00;1.10;;;0.60;;
8001;SDS011;4046;48.774;8.732;2023-11-21T15:10:47;1.10;;;0.60;;
8001;SDS011;4046;48.774;8.732;2023-11-21T15:13:18;1.03;;;0.50;;
8001;SDS011;4046;48.774;8.732;2023-11-21T15:15:44;1.10;;;0.50;;
8001;SDS011;4046;48.774;8.732;2023-11-21T15:18:10;1.10;;;0.50;;
8001;SDS011;4046;48.774;8.732;2023-11-21T15:20:37;1.10;;;0.50;;
8001;SDS011;4046;48.774;8.732;2023-11-21T15:23:07;1.07;;;0.50;;
8001;SDS011;4046;48.774;8.732;2023-11-21T15:25:34;1.10;;;0.60;;
8001;SDS011;4046;48.774;8.732;2023-11-21T15:28:00;1.10;;;0.60;;
8001;SDS011;4046;48.774;8.732;2023-11-21T15:30:28;1.10;;;0.50;;